CG Skipjack — NHOY — position and weather

sailwx.info

Track history (hours):
 
Tides and Currents Weather Stations Pressure Air Temp Water Temp Dewpoint Dewpoint Depression Visibility Wind Speed Wind Dir Waves Ship Positions

CG Skipjack

Last reported at 2018-Jun-03 16:05 UTC. Time now 2018-Jun-18 02:11 UTC.
Position N 29°54' W 092°07'.
Warning: this ship's position is 14 days out of date.

Length 26 m; draft 1.7 m.

Type: SAR. MMSI: 366999611.

Date/timePositionNaut miles runAvg speedWind from/ knotsBaromVisibWave heightAir tempDewpointWater temp
2018-Jun-03 16:05N 29°54' W 092°07'1 6.1
2018-Jun-03 15:59N 29°53' W 092°07'3 6.3
2018-Jun-03 15:30N 29°50' W 092°08'3 6.8
2018-Jun-03 15:00N 29°47' W 092°09'2 3.0
2018-Jun-03 14:31N 29°47' W 092°11'0 0.0
2018-Jun-03 13:59N 29°47' W 092°11'2 3.3
2018-Jun-03 13:30N 29°45' W 092°12'816.8
2018-Jun-03 13:00N 29°38' W 092°16'  
2018-May-31 21:01N 29°34' W 092°18'020.5
2018-May-31 21:00N 29°34' W 092°18'1019.5
2018-May-31 20:30N 29°43' W 092°15'713.1
2018-May-31 20:00N 29°47' W 092°09'4 7.5
2018-May-31 19:30N 29°51' W 092°08'  
2018-May-29 05:43N 29°54' W 092°07'0 0.0
2018-May-27 10:29N 29°54' W 092°07'0 0.0
2018-May-26 17:22N 29°54' W 092°07'0 0.0
2018-May-26 17:00N 29°54' W 092°07'0 0.0
2018-May-26 16:25N 29°54' W 092°07'  
Track history (hours):
 
Tides and Currents Weather Stations Pressure Air Temp Water Temp Dewpoint Dewpoint Depression Visibility Wind Speed Wind Dir Waves Ship Positions

CG Skipjack

Last reported at 2018-Jun-03 16:05 UTC. Time now 2018-Jun-18 02:11 UTC.
Position N 29°54' W 092°07'.
Warning: this ship's position is 14 days out of date.

Length 26 m; draft 1.7 m.

Type: SAR. MMSI: 366999611.

Date/timePositionNaut miles runAvg speedWind from/ knotsBaromVisibWave heightAir tempDewpointWater temp
2018-Jun-03 16:05N 29°54' W 092°07'1 6.1
2018-Jun-03 15:59N 29°53' W 092°07'3 6.3
2018-Jun-03 15:30N 29°50' W 092°08'3 6.8
2018-Jun-03 15:00N 29°47' W 092°09'2 3.0
2018-Jun-03 14:31N 29°47' W 092°11'0 0.0
2018-Jun-03 13:59N 29°47' W 092°11'2 3.3
2018-Jun-03 13:30N 29°45' W 092°12'816.8
2018-Jun-03 13:00N 29°38' W 092°16'  
2018-May-31 21:01N 29°34' W 092°18'020.5
2018-May-31 21:00N 29°34' W 092°18'1019.5
2018-May-31 20:30N 29°43' W 092°15'713.1
2018-May-31 20:00N 29°47' W 092°09'4 7.5
2018-May-31 19:30N 29°51' W 092°08'  
2018-May-29 05:43N 29°54' W 092°07'0 0.0
2018-May-27 10:29N 29°54' W 092°07'0 0.0
2018-May-26 17:22N 29°54' W 092°07'0 0.0
2018-May-26 17:00N 29°54' W 092°07'0 0.0
2018-May-26 16:25N 29°54' W 092°07'  

Dump ship's entire track history